ID Time Temp Humidity Light PM2.5 PM10 Voltage Extra Firmware Position Fcnt TTN version Gateways Distance RSSI LSNR Radiosettings
2026-05-07 17:33:21 18.75°C 50.5% 3.32V v4 No position 26539 ttn.v3 - -111 -3.5 867.3MHz, SF9BW125, 4/5CR
- -115 -9.75 867.3MHz, SF9BW125, 4/5CR
2026-05-07 17:16:10 18.6875°C 50.625% 3.32V v4 No position 26538 ttn.v3 - -109 -0.75 868.5MHz, SF9BW125, 4/5CR
2026-05-07 16:59:00 18.5°C 51.25% 3.32V v4 No position 26537 ttn.v3 - -120 -3.5 867.1MHz, SF9BW125, 4/5CR
- -115 -4.75 867.1MHz, SF9BW125, 4/5CR
- -120 -6.5 867.1MHz, SF9BW125, 4/5CR
- -111 -11.25 867.1MHz, SF9BW125, 4/5CR
- -111 -11.25 867.1MHz, SF9BW125, 4/5CR
2026-05-07 16:24:40 18.4375°C 51.8125% 3.32V v4 No position 26535 ttn.v3 - -115 1.25 867.9MHz, SF9BW125, 4/5CR
- -123 -13.75 867.9MHz, SF9BW125, 4/5CR
2026-05-07 16:07:30 18.4375°C 51.1875% 3.32V v4 No position 26534 ttn.v3 - -110 -13.25 868.1MHz, SF9BW125, 4/5CR
2026-05-07 15:50:20 18.6875°C 49.875% 3.32V v4 No position 26533 ttn.v3 - -111 1.5 867.7MHz, SF9BW125, 4/5CR
2026-05-07 15:33:10 19°C 48.125% 3.32V v4 No position 26532 ttn.v3 - -109 -2.5 868.5MHz, SF9BW125, 4/5CR
2026-05-07 14:41:38 19.4375°C 45.625% 3.32V v4 No position 26529 ttn.v3 - -115 -1 867.3MHz, SF9BW125, 4/5CR
- -119 -13.5 867.3MHz, SF9BW125, 4/5CR
2026-05-07 14:24:28 19.5625°C 46.625% 3.32V v4 No position 26528 ttn.v3 - -115 -6 868.1MHz, SF9BW125, 4/5CR
2026-05-07 14:07:18 19.0625°C 49.0625% 3.32V v4 No position 26527 ttn.v3 - -114 -3.5 867.1MHz, SF9BW125, 4/5CR
2026-05-07 13:50:07 19.25°C 47.25% 3.32V v4 No position 26526 ttn.v3 - -109 -9.25 868.5MHz, SF9BW125, 4/5CR
2026-05-07 13:32:57 20.125°C 46.6875% 3.32V v4 No position 26525 ttn.v3 - -115 -2.5 867.9MHz, SF9BW125, 4/5CR
2026-05-07 13:15:46 19.3125°C 51.25% 3.32V v4 No position 26524 ttn.v3 - -113 -8.25 868.3MHz, SF9BW125, 4/5CR
2026-05-07 12:58:36 20.125°C 49.375% 3.32V v4 No position 26523 ttn.v3 - -113 -1.25 867.7MHz, SF9BW125, 4/5CR
2026-05-07 12:41:25 19.8125°C 52.125% 3.32V v4 No position 26522 ttn.v3 - -113 -3.5 868.1MHz, SF9BW125, 4/5CR
2026-05-07 12:07:05 17.8125°C 56.4375% 3.33V v4 No position 26520 ttn.v3 - -109 -4 868.5MHz, SF9BW125, 4/5CR
2026-05-07 11:49:56 16.5625°C 59.875% 3.32V v4 No position 26519 ttn.v3 - -111 -1.5 867.3MHz, SF9BW125, 4/5CR
- -118 -9.5 867.3MHz, SF9BW125, 4/5CR
2026-05-07 11:15:38 14.4375°C 69.8125% 3.33V v4 No position 26517 ttn.v3 - -115 -5.5 867.1MHz, SF9BW125, 4/5CR
- -120 -7.75 867.1MHz, SF9BW125, 4/5CR
- -114 -11.25 867.1MHz, SF9BW125, 4/5CR
2026-05-07 10:58:29 13.6875°C 70.6875% 3.33V v4 No position 26516 ttn.v3 - -111 -6.5 868.1MHz, SF9BW125, 4/5CR
2026-05-07 10:41:21 13.0625°C 73.75% 3.33V v4 No position 26515 ttn.v3 - -116 -2.75 867.9MHz, SF9BW125, 4/5CR
- -122 -10 867.9MHz, SF9BW125, 4/5CR
- -126 -12.75 867.9MHz, SF9BW125, 4/5CR
2026-05-07 10:24:13 12.625°C 75.4375% 3.33V v4 No position 26514 ttn.v3 - -111 -5 868.5MHz, SF9BW125, 4/5CR
2026-05-07 10:07:05 12.3125°C 77.5% 3.33V v4 No position 26513 ttn.v3 - -114 -4.75 867.7MHz, SF9BW125, 4/5CR
- -118 -10.25 867.7MHz, SF9BW125, 4/5CR
2026-05-07 09:49:57 11.9375°C 77.625% 3.33V v4 No position 26512 ttn.v3 - -109 -3.75 868.3MHz, SF9BW125, 4/5CR
2026-05-07 09:32:49 11.6875°C 79% 3.33V v4 No position 26511 ttn.v3 - -111 -8.5 867.5MHz, SF9BW125, 4/5CR
2026-05-07 09:15:41 11.375°C 79.25% 3.33V v4 No position 26510 ttn.v3 - -115 -2 868.1MHz, SF9BW125, 4/5CR
2026-05-07 08:58:33 11.1875°C 79.6875% 3.33V v4 No position 26509 ttn.v3 - -113 -0.75 867.3MHz, SF9BW125, 4/5CR
2026-05-07 08:24:17 11.0625°C 83.625% 3.33V v4 No position 26507 ttn.v3 - -113 -5 867.1MHz, SF9BW125, 4/5CR
- -122 -8.75 867.1MHz, SF9BW125, 4/5CR
2026-05-07 08:07:10 10.8125°C 84.375% 3.33V v4 No position 26506 ttn.v3 - -110 -5.25 868.3MHz, SF9BW125, 4/5CR
2026-05-07 07:50:02 10.5°C 87.8125% 3.33V v4 No position 26505 ttn.v3 - -116 -1.5 867.9MHz, SF9BW125, 4/5CR
- -121 -8.75 867.9MHz, SF9BW125, 4/5CR
2026-05-07 07:32:54 10.3125°C 89.4375% 3.33V v4 No position 26504 ttn.v3 - -106 0.75 868.1MHz, SF9BW125, 4/5CR
2026-05-07 07:15:47 10°C 90.125% 3.33V v4 No position 26503 ttn.v3 - -113 -3 867.7MHz, SF9BW125, 4/5CR
- -108 -10.75 867.7MHz, SF9BW125, 4/5CR
2026-05-07 06:58:40 9.8125°C 90.3125% 3.33V v4 No position 26502 ttn.v3 - -108 0.75 868.5MHz, SF9BW125, 4/5CR
2026-05-07 06:07:18 9.75°C 90.8125% 3.33V v4 No position 26499 ttn.v3 - -113 -0.75 867.3MHz, SF9BW125, 4/5CR
- -111 -8.75 867.3MHz, SF9BW125, 4/5CR
- -119 -10 867.3MHz, SF9BW125, 4/5CR
- -124 -13.5 867.3MHz, SF9BW125, 4/5CR
2026-05-07 05:50:10 9.75°C 90.9375% 3.33V v4 No position 26498 ttn.v3 - -110 -3 868.1MHz, SF9BW125, 4/5CR
2026-05-07 05:33:03 9.8125°C 91.1875% 3.33V v4 No position 26497 ttn.v3 - -115 -4.25 867.1MHz, SF9BW125, 4/5CR
- -119 -6 867.1MHz, SF9BW125, 4/5CR
- -109 -8.5 867.1MHz, SF9BW125, 4/5CR
- -119 -10.25 867.1MHz, SF9BW125, 4/5CR
2026-05-07 05:18:14 9.8125°C 91.25% 3.32V v4 No position 26496 ttn.v3 - -108 -4 868.5MHz, SF12BW125, 4/5CR
- -120 -19.25 868.5MHz, SF12BW125, 4/5CR
2026-05-07 04:59:05 9.8125°C 90.625% 3.33V v4 51.5916 / 4.99734 26495 ttn.v3 1.242km -113 0.25 867.9MHz, SF9BW125, 4/5CR
- -117 -4.25 867.9MHz, SF9BW125, 4/5CR
5.685km -110 -7 867.9MHz, SF9BW125, 4/5CR
- -121 -8.25 867.9MHz, SF9BW125, 4/5CR
- -115 -10.75 867.9MHz, SF9BW125, 4/5CR
- -115 -10.75 867.9MHz, SF9BW125, 4/5CR
2026-05-07 04:41:58 9.875°C 90.1875% 3.33V v4 51.5916 / 4.99734 26494 ttn.v3 1.242km -110 -9 868.3MHz, SF9BW125, 4/5CR
2026-05-07 04:24:50 9.875°C 89.6875% 3.33V v4 51.5916 / 4.99734 26493 ttn.v3 5.685km -108 -12.25 867.7MHz, SF9BW125, 4/5CR
2026-05-07 04:07:42 9.9375°C 89.125% 3.33V v4 51.5916 / 4.99734 26492 ttn.v3 1.242km -115 -1.75 868.1MHz, SF9BW125, 4/5CR
2026-05-07 03:50:35 10°C 88.375% 3.33V v4 51.5916 / 4.99734 26491 ttn.v3 1.242km -108 -4.25 867.5MHz, SF9BW125, 4/5CR
- -116 -14.75 867.5MHz, SF9BW125, 4/5CR
2026-05-07 03:33:27 10.0625°C 87.125% 3.33V v4 51.5916 / 4.99734 26490 ttn.v3 1.242km -111 0 868.5MHz, SF9BW125, 4/5CR
- -116 -14.25 868.5MHz, SF9BW125, 4/5CR
2026-05-07 03:16:19 10.3125°C 85.125% 3.33V v4 51.5916 / 4.99734 26489 ttn.v3 1.242km -113 -2.25 867.3MHz, SF9BW125, 4/5CR
2026-05-07 02:59:12 10.6875°C 84.125% 3.33V v4 51.5916 / 4.99734 26488 ttn.v3 1.242km -95 -7.25 868.3MHz, SF9BW125, 4/5CR
2026-05-07 02:42:04 11.0625°C 83.8125% 3.33V v4 51.5916 / 4.99734 26487 ttn.v3 1.242km -114 -2.25 867.1MHz, SF9BW125, 4/5CR
- -120 -11.75 867.1MHz, SF9BW125, 4/5CR
2026-05-07 02:24:56 11.5°C 83.1875% 3.33V v4 51.5916 / 4.99734 26486 ttn.v3 1.242km -110 -1.75 868.1MHz, SF9BW125, 4/5CR
2026-05-07 02:07:48 11.6875°C 82.75% 3.33V v4 51.5916 / 4.99734 26485 ttn.v3 1.242km -114 -1.25 867.9MHz, SF9BW125, 4/5CR
5.685km -113 -7.5 867.9MHz, SF9BW125, 4/5CR
- -123 -12.5 867.9MHz, SF9BW125, 4/5CR
2026-05-07 01:50:40 11.75°C 82.5% 3.33V v4 51.5916 / 4.99734 26484 ttn.v3 1.242km -98 -4 868.5MHz, SF9BW125, 4/5CR
2026-05-07 01:33:32 11.8125°C 81.9375% 3.33V v4 51.5916 / 4.99734 26483 ttn.v3 1.242km -110 0.5 867.7MHz, SF9BW125, 4/5CR
5.685km -109 -10.75 867.7MHz, SF9BW125, 4/5CR
- -118 -14.25 867.7MHz, SF9BW125, 4/5CR
2026-05-07 01:16:24 12°C 79.75% 3.33V v4 51.5916 / 4.99734 26482 ttn.v3 1.242km -107 -6 868.3MHz, SF9BW125, 4/5CR
2026-05-07 00:59:16 12.0625°C 78.75% 3.33V v4 51.5916 / 4.99734 26481 ttn.v3 1.242km -108 -3.5 867.5MHz, SF9BW125, 4/5CR
- -115 -14 867.5MHz, SF9BW125, 4/5CR
2026-05-07 00:42:08 12.125°C 78.125% 3.33V v4 51.5916 / 4.99734 26480 ttn.v3 1.242km -109 -4 868.1MHz, SF9BW125, 4/5CR
2026-05-07 00:25:00 12.125°C 77.25% 3.33V v4 51.5916 / 4.99734 26479 ttn.v3 1.242km -113 -1.25 867.3MHz, SF9BW125, 4/5CR
- -115 -6 867.3MHz, SF9BW125, 4/5CR
2026-05-07 00:07:52 12.1875°C 75.875% 3.33V v4 51.5916 / 4.99734 26478 ttn.v3 1.242km -104 -0.5 868.5MHz, SF9BW125, 4/5CR
2026-05-06 23:50:44 12.1875°C 75.3125% 3.33V v4 51.5916 / 4.99734 26477 ttn.v3 1.242km -112 -9.25 867.1MHz, SF9BW125, 4/5CR
- -118 -9.75 867.1MHz, SF9BW125, 4/5CR
- -115 -11.75 867.1MHz, SF9BW125, 4/5CR
2026-05-06 23:16:28 12.25°C 74.5625% 3.33V v4 51.5916 / 4.99734 26475 ttn.v3 1.242km -115 0.75 867.9MHz, SF9BW125, 4/5CR
- -121 -8.5 867.9MHz, SF9BW125, 4/5CR
- -113 -8.75 867.9MHz, SF9BW125, 4/5CR
- -113 -8.75 867.9MHz, SF9BW125, 4/5CR
5.685km -113 -10 867.9MHz, SF9BW125, 4/5CR
2026-05-06 22:59:20 12.3125°C 74.0625% 3.33V v4 51.5916 / 4.99734 26474 ttn.v3 1.242km -113 0.75 868.1MHz, SF9BW125, 4/5CR
- -119 -10 868.1MHz, SF9BW125, 4/5CR
- -118 -11 868.1MHz, SF9BW125, 4/5CR
2026-05-06 22:42:11 12.375°C 72.75% 3.33V v4 51.5916 / 4.99734 26473 ttn.v3 1.242km -109 -0.5 867.7MHz, SF9BW125, 4/5CR
2026-05-06 22:25:03 12.5°C 72.1875% 3.33V v4 51.5916 / 4.99734 26472 ttn.v3 1.242km -110 -2.25 868.5MHz, SF9BW125, 4/5CR
2026-05-06 22:07:55 12.625°C 71.75% 3.33V v4 51.5916 / 4.99734 26471 ttn.v3 1.242km -113 -4 867.5MHz, SF9BW125, 4/5CR
2026-05-06 21:33:39 12.875°C 70.6875% 3.33V v4 51.5916 / 4.99734 26469 ttn.v3 1.242km -113 -0.25 867.3MHz, SF9BW125, 4/5CR
- -119 -7.25 867.3MHz, SF9BW125, 4/5CR
- -114 -7.25 867.3MHz, SF9BW125, 4/5CR
- -109 -11 867.3MHz, SF9BW125, 4/5CR
- -109 -11 867.3MHz, SF9BW125, 4/5CR
2026-05-06 21:16:30 12.9375°C 70.0625% 3.33V v4 51.5916 / 4.99734 26468 ttn.v3 1.242km -111 -0.5 868.1MHz, SF9BW125, 4/5CR
- -115 -9.75 868.1MHz, SF9BW125, 4/5CR
2026-05-06 20:59:22 13.0625°C 69.4375% 3.33V v4 51.5916 / 4.99734 26467 ttn.v3 1.242km -116 -7 867.1MHz, SF9BW125, 4/5CR
- -121 -8.25 867.1MHz, SF9BW125, 4/5CR
- -115 -8.75 867.1MHz, SF9BW125, 4/5CR
- -113 -11.5 867.1MHz, SF9BW125, 4/5CR
- -113 -11.5 867.1MHz, SF9BW125, 4/5CR
2026-05-06 20:42:14 13.1875°C 68.9375% 3.33V v4 51.5916 / 4.99734 26466 ttn.v3 1.242km -111 -4.75 868.5MHz, SF9BW125, 4/5CR
2026-05-06 20:25:05 13.375°C 68.25% 3.33V v4 51.5916 / 4.99734 26465 ttn.v3 1.242km -115 -0.25 867.9MHz, SF9BW125, 4/5CR
- -118 -9.25 867.9MHz, SF9BW125, 4/5CR
2026-05-06 19:50:48 13.6875°C 67.75% 3.33V v4 51.5916 / 4.99734 26463 ttn.v3 - -114 -7.75 867.7MHz, SF9BW125, 4/5CR
2026-05-06 19:33:40 13.875°C 67.5% 3.33V v4 51.5916 / 4.99734 26462 ttn.v3 1.242km -110 -12.25 868.1MHz, SF9BW125, 4/5CR
2026-05-06 18:59:22 14.25°C 67.25% 3.33V v4 51.5916 / 4.99734 26460 ttn.v3 1.242km -103 -3.75 868.5MHz, SF9BW125, 4/5CR
2026-05-06 18:42:14 14.125°C 69.3125% 3.33V v4 51.5916 / 4.99734 26459 ttn.v3 1.242km -115 -4.5 867.3MHz, SF9BW125, 4/5CR
- -111 -4.75 867.3MHz, SF9BW125, 4/5CR
- -111 -4.75 867.3MHz, SF9BW125, 4/5CR
- -119 -6 867.3MHz, SF9BW125, 4/5CR
2026-05-06 18:25:05 14.375°C 68.5% 3.33V v4 51.5916 / 4.99734 26458 ttn.v3 1.242km -113 -7.75 868.3MHz, SF9BW125, 4/5CR
2026-05-06 18:07:56 14.5°C 67.8125% 3.33V v4 51.5916 / 4.99734 26457 ttn.v3 - -115 -7 867.1MHz, SF9BW125, 4/5CR
- -122 -8.5 867.1MHz, SF9BW125, 4/5CR
2026-05-06 17:50:47 14.9375°C 64.3125% 3.33V v4 51.5916 / 4.99734 26456 ttn.v3 1.242km -111 0 868.1MHz, SF9BW125, 4/5CR
2026-05-06 17:33:38 15.0625°C 63% 3.33V v4 51.5916 / 4.99734 26455 ttn.v3 1.242km -115 -1 867.9MHz, SF9BW125, 4/5CR
- -116 -6.75 867.9MHz, SF9BW125, 4/5CR
- -116 -11.5 867.9MHz, SF9BW125, 4/5CR
- -116 -11.5 867.9MHz, SF9BW125, 4/5CR
2026-05-06 17:16:29 15.1875°C 60.75% 3.33V v4 51.5916 / 4.99734 26454 ttn.v3 1.242km -110 -9.25 868.5MHz, SF9BW125, 4/5CR
2026-05-06 16:59:20 15.375°C 58.9375% 3.33V v4 51.5916 / 4.99734 26453 ttn.v3 - -114 -5 867.7MHz, SF9BW125, 4/5CR
1.242km -111 -5 867.7MHz, SF9BW125, 4/5CR
- -109 -8.25 867.7MHz, SF9BW125, 4/5CR
- -109 -8.25 867.7MHz, SF9BW125, 4/5CR
2026-05-06 16:42:10 15.8125°C 57.5% 3.33V v4 51.5916 / 4.99734 26452 ttn.v3 1.242km -106 -5.25 868.3MHz, SF9BW125, 4/5CR
2026-05-06 16:07:51 17°C 51.8125% 3.32V v4 51.5916 / 4.99734 26450 ttn.v3 1.242km -111 1 868.1MHz, SF9BW125, 4/5CR
2026-05-06 15:50:41 18.0625°C 49.25% 3.32V v4 51.5916 / 4.99734 26449 ttn.v3 - -111 -4 867.3MHz, SF9BW125, 4/5CR
- -111 -4 867.3MHz, SF9BW125, 4/5CR
- -114 -9.75 867.3MHz, SF9BW125, 4/5CR
- -124 -13 867.3MHz, SF9BW125, 4/5CR
2026-05-06 15:33:31 18.4375°C 48.125% 3.32V v4 51.5916 / 4.99734 26448 ttn.v3 1.242km -110 -6.75 868.5MHz, SF9BW125, 4/5CR
2026-05-06 15:16:21 18.6875°C 47.875% 3.32V v4 51.5916 / 4.99734 26447 ttn.v3 1.242km -116 -7 867.1MHz, SF9BW125, 4/5CR
2026-05-06 14:59:11 18.8125°C 47.75% 3.32V v4 51.5916 / 4.99734 26446 ttn.v3 1.242km -109 -8.25 868.3MHz, SF9BW125, 4/5CR
2026-05-06 14:42:00 18.875°C 50.875% 3.32V v4 51.5916 / 4.99734 26445 ttn.v3 - -118 -9.5 867.9MHz, SF9BW125, 4/5CR
5.685km -109 -10.25 867.9MHz, SF9BW125, 4/5CR
- -110 -11 867.9MHz, SF9BW125, 4/5CR
- -110 -11 867.9MHz, SF9BW125, 4/5CR
2026-05-06 14:07:39 19.875°C 50.125% 3.32V v4 51.5916 / 4.99734 26443 ttn.v3 1.242km -115 -3.75 867.7MHz, SF9BW125, 4/5CR
- -122 -10.25 867.7MHz, SF9BW125, 4/5CR
2026-05-06 13:50:28 20.625°C 48.1875% 3.32V v4 51.5916 / 4.99734 26442 ttn.v3 1.242km -115 -9.5 868.5MHz, SF9BW125, 4/5CR
2026-05-06 13:33:17 21.3125°C 44% 3.32V v4 51.5916 / 4.99734 26441 ttn.v3 1.242km -111 -7.25 867.5MHz, SF9BW125, 4/5CR
- -115 -12.5 867.5MHz, SF9BW125, 4/5CR
2026-05-06 13:16:06 20.75°C 44.6875% 3.32V v4 51.5916 / 4.99734 26440 ttn.v3 1.242km -111 -8.5 868.3MHz, SF9BW125, 4/5CR
2026-05-06 12:58:55 21.375°C 48.4375% 3.32V v4 51.5916 / 4.99734 26439 ttn.v3 1.242km -115 -6.75 867.3MHz, SF9BW125, 4/5CR
- -122 -10.5 867.3MHz, SF9BW125, 4/5CR
2026-05-06 12:24:34 17.875°C 59.875% 3.33V v4 51.5916 / 4.99734 26437 ttn.v3 1.242km -111 -2.75 867.1MHz, SF9BW125, 4/5CR
- -117 -9.5 867.1MHz, SF9BW125, 4/5CR
2026-05-06 12:07:24 17.0625°C 63.5625% 3.33V v4 51.5916 / 4.99734 26436 ttn.v3 - -113 -12.75 868.5MHz, SF9BW125, 4/5CR
2026-05-06 11:50:15 16.9375°C 66.4375% 3.33V v4 51.5916 / 4.99734 26435 ttn.v3 - -114 -2.25 867.9MHz, SF9BW125, 4/5CR
- -115 -6 867.9MHz, SF9BW125, 4/5CR
- -115 -6 867.9MHz, SF9BW125, 4/5CR
1.242km -116 -9.75 867.9MHz, SF9BW125, 4/5CR
2026-05-06 11:33:05 16.25°C 69.375% 3.33V v4 51.5916 / 4.99734 26434 ttn.v3 1.242km -110 -7 868.3MHz, SF9BW125, 4/5CR
2026-05-06 10:58:47 15.75°C 74.0625% 3.33V v4 51.5916 / 4.99734 26432 ttn.v3 - -120 -14.5 868.1MHz, SF9BW125, 4/5CR
2026-05-06 10:41:38 15.25°C 78.6875% 3.33V v4 51.5916 / 4.99734 26431 ttn.v3 1.242km -107 -7.75 867.5MHz, SF9BW125, 4/5CR
2026-05-06 10:24:29 14.625°C 80.375% 3.33V v4 51.5916 / 4.99734 26430 ttn.v3 1.242km -110 -5 868.5MHz, SF9BW125, 4/5CR
2026-05-06 10:07:21 13.9375°C 87.5% 3.33V v4 51.5916 / 4.99734 26429 ttn.v3 - -121 -8.5 867.3MHz, SF9BW125, 4/5CR
2026-05-06 09:33:04 12.5625°C 94.6875% 3.33V v4 51.5916 / 4.99734 26427 ttn.v3 1.242km -116 -4.5 867.1MHz, SF9BW125, 4/5CR
- -121 -9.25 867.1MHz, SF9BW125, 4/5CR
- -122 -13.75 867.1MHz, SF9BW125, 4/5CR
2026-05-06 09:15:56 12.1875°C 95.8125% 3.33V v4 51.5916 / 4.99734 26426 ttn.v3 1.242km -113 -3.75 868.1MHz, SF9BW125, 4/5CR
2026-05-06 08:41:40 11.4375°C 101% 3.33V v4 51.5916 / 4.99734 26424 ttn.v3 1.242km -115 -10.75 868.5MHz, SF9BW125, 4/5CR
- -113 -12.75 868.5MHz, SF9BW125, 4/5CR
2026-05-06 08:24:32 11°C 102.375% 3.33V v4 51.5916 / 4.99734 26423 ttn.v3 1.242km -111 1 867.7MHz, SF9BW125, 4/5CR
- -118 -8.5 867.7MHz, SF9BW125, 4/5CR
2026-05-06 08:07:25 10.625°C 102.938% 3.33V v4 51.5916 / 4.99734 26422 ttn.v3 1.242km -110 -13.25 868.3MHz, SF9BW125, 4/5CR
2026-05-06 07:16:02 10.1875°C 104.812% 3.33V v4 51.5916 / 4.99734 26419 ttn.v3 1.242km -113 0.25 867.3MHz, SF9BW125, 4/5CR
- -122 -12.5 867.3MHz, SF9BW125, 4/5CR
- -119 -13 867.3MHz, SF9BW125, 4/5CR
2026-05-06 06:58:55 10.125°C 105.125% 3.33V v4 51.5916 / 4.99734 26418 ttn.v3 1.242km -111 -9.25 868.5MHz, SF9BW125, 4/5CR
- -116 -12.5 868.5MHz, SF9BW125, 4/5CR
2026-05-06 06:41:47 10.0625°C 105.312% 3.33V v4 51.5916 / 4.99734 26417 ttn.v3 1.242km -113 -7.75 867.1MHz, SF9BW125, 4/5CR
2026-05-06 05:50:25 10.125°C 104.688% 3.33V v4 51.5916 / 4.99734 26414 ttn.v3 1.242km -113 -1.75 868.1MHz, SF9BW125, 4/5CR
2026-05-06 05:33:17 10.1875°C 104.875% 3.33V v4 51.5916 / 4.99734 26413 ttn.v3 1.242km -115 -1.5 867.7MHz, SF9BW125, 4/5CR
- -118 -12 867.7MHz, SF9BW125, 4/5CR
5.685km -110 -12 867.7MHz, SF9BW125, 4/5CR
2026-05-06 05:16:10 10.3125°C 103.5% 3.33V v4 51.5916 / 4.99734 26412 ttn.v3 1.242km -113 -2 868.5MHz, SF9BW125, 4/5CR
2026-05-06 04:59:02 10.4375°C 101.812% 3.33V v4 51.5916 / 4.99734 26411 ttn.v3 1.242km -111 -3.25 867.5MHz, SF9BW125, 4/5CR
2026-05-06 04:24:47 10.625°C 99.0625% 3.33V v4 51.5916 / 4.99734 26409 ttn.v3 1.242km -111 -1.5 867.3MHz, SF9BW125, 4/5CR
- -118 -10.25 867.3MHz, SF9BW125, 4/5CR
2026-05-06 04:07:39 10.75°C 97.8125% 3.33V v4 51.5916 / 4.99734 26408 ttn.v3 1.242km -109 -3 868.1MHz, SF9BW125, 4/5CR
2026-05-06 03:50:32 10.875°C 95.4375% 3.33V v4 51.5916 / 4.99734 26407 ttn.v3 1.242km -115 -5.5 867.1MHz, SF9BW125, 4/5CR
2026-05-06 03:33:24 11°C 93.6875% 3.33V v4 51.5916 / 4.99734 26406 ttn.v3 - -114 -13.75 868.5MHz, SF9BW125, 4/5CR
2026-05-06 03:16:16 11.0625°C 93.3125% 3.33V v4 51.5916 / 4.99734 26405 ttn.v3 1.242km -114 -2.5 867.9MHz, SF9BW125, 4/5CR
- -106 -11.25 867.9MHz, SF9BW125, 4/5CR
- -106 -11.25 867.9MHz, SF9BW125, 4/5CR
- -118 -13.75 867.9MHz, SF9BW125, 4/5CR
2026-05-06 02:42:01 11.1875°C 91.8125% 3.33V v4 51.5916 / 4.99734 26403 ttn.v3 1.242km -116 -6 867.7MHz, SF9BW125, 4/5CR
- -117 -6 867.7MHz, SF9BW125, 4/5CR
5.685km -111 -8 867.7MHz, SF9BW125, 4/5CR
- -126 -13.5 867.7MHz, SF9BW125, 4/5CR
2026-05-06 01:52:14 11.3125°C 89.8125% 3.33V v4 51.5916 / 4.99734 26400 ttn.v3 - -117 -12.25 868.5MHz, SF12BW125, 4/5CR
1.242km -111 -12.25 868.5MHz, SF12BW125, 4/5CR
2026-05-06 01:33:41 11.4375°C 89.125% 3.33V v4 51.5916 / 4.99734 26399 ttn.v3 1.242km -111 -2.5 867.3MHz, SF9BW125, 4/5CR
- -120 -8.5 867.3MHz, SF9BW125, 4/5CR
5.685km -111 -9.25 867.3MHz, SF9BW125, 4/5CR
2026-05-06 00:59:26 11.6875°C 87.5625% 3.33V v4 51.5916 / 4.99734 26397 ttn.v3 1.242km -113 -2.75 867.1MHz, SF9BW125, 4/5CR
- -119 -7.25 867.1MHz, SF9BW125, 4/5CR
- -118 -9.5 867.1MHz, SF9BW125, 4/5CR
5.685km -111 -11.75 867.1MHz, SF9BW125, 4/5CR
2026-05-06 00:42:18 11.875°C 86.9375% 3.33V v4 51.5916 / 4.99734 26396 ttn.v3 1.242km -103 -4 868.1MHz, SF9BW125, 4/5CR
2026-05-06 00:25:10 12°C 86.1875% 3.33V v4 51.5916 / 4.99734 26395 ttn.v3 1.242km -115 0 867.9MHz, SF9BW125, 4/5CR
- -114 -1 867.9MHz, SF9BW125, 4/5CR
- -115 -6.5 867.9MHz, SF9BW125, 4/5CR
- -115 -6.5 867.9MHz, SF9BW125, 4/5CR
5.685km -113 -11.25 867.9MHz, SF9BW125, 4/5CR
- -126 -12.75 867.9MHz, SF9BW125, 4/5CR
2026-05-06 00:08:02 12.125°C 85.4375% 3.33V v4 51.5916 / 4.99734 26394 ttn.v3 1.242km -113 -7 868.5MHz, SF9BW125, 4/5CR
2026-05-05 23:50:53 12.25°C 85.375% 3.33V v4 51.5916 / 4.99734 26393 ttn.v3 1.242km -113 -0.5 867.7MHz, SF9BW125, 4/5CR
- -114 -4.75 867.7MHz, SF9BW125, 4/5CR
- -108 -10.5 867.7MHz, SF9BW125, 4/5CR
- -108 -10.5 867.7MHz, SF9BW125, 4/5CR
2026-05-05 23:16:37 12.5625°C 85.375% 3.33V v4 51.5916 / 4.99734 26391 ttn.v3 1.242km -109 -6.75 867.5MHz, SF9BW125, 4/5CR
- -114 -13.75 867.5MHz, SF9BW125, 4/5CR
2026-05-05 22:42:21 12.75°C 85.6875% 3.33V v4 51.5916 / 4.99734 26389 ttn.v3 1.242km -114 -3.75 867.3MHz, SF9BW125, 4/5CR
- -117 -6.25 867.3MHz, SF9BW125, 4/5CR
- -122 -10 867.3MHz, SF9BW125, 4/5CR
- -111 -11.75 867.3MHz, SF9BW125, 4/5CR
- -111 -11.75 867.3MHz, SF9BW125, 4/5CR
2026-05-05 22:25:13 12.875°C 84.8125% 3.33V v4 51.5916 / 4.99734 26388 ttn.v3 1.242km -107 -10 868.5MHz, SF9BW125, 4/5CR
- -113 -11.5 868.5MHz, SF9BW125, 4/5CR
2026-05-05 22:08:04 13°C 83.9375% 3.33V v4 51.5916 / 4.99734 26387 ttn.v3 - -118 -5.75 867.1MHz, SF9BW125, 4/5CR
1.242km -114 -5.75 867.1MHz, SF9BW125, 4/5CR
- -121 -7 867.1MHz, SF9BW125, 4/5CR
5.685km -109 -11.75 867.1MHz, SF9BW125, 4/5CR
2026-05-05 21:33:48 13.625°C 83.0625% 3.33V v4 51.5916 / 4.99734 26385 ttn.v3 - -112 0.75 867.9MHz, SF9BW125, 4/5CR
1.242km -113 -1 867.9MHz, SF9BW125, 4/5CR
- -125 -10.75 867.9MHz, SF9BW125, 4/5CR
5.685km -109 -11.75 867.9MHz, SF9BW125, 4/5CR
2026-05-05 21:16:39 14.125°C 83.4375% 3.33V v4 51.5916 / 4.99734 26384 ttn.v3 1.242km -105 -1.75 868.1MHz, SF9BW125, 4/5CR
2026-05-05 20:59:30 14.5625°C 84.875% 3.33V v4 51.5916 / 4.99734 26383 ttn.v3 1.242km -113 -0.75 867.7MHz, SF9BW125, 4/5CR
2026-05-05 20:42:21 15°C 83.5625% 3.33V v4 51.5916 / 4.99734 26382 ttn.v3 1.242km -108 -8.25 868.5MHz, SF9BW125, 4/5CR
- -119 -12.5 868.5MHz, SF9BW125, 4/5CR
2026-05-05 20:08:03 16°C 79.5% 3.33V v4 51.5916 / 4.99734 26380 ttn.v3 1.242km -109 -11 868.3MHz, SF9BW125, 4/5CR
2026-05-05 19:50:53 16.625°C 77.1875% 3.33V v4 51.5916 / 4.99734 26379 ttn.v3 1.242km -111 -6.5 867.3MHz, SF9BW125, 4/5CR
- -117 -7 867.3MHz, SF9BW125, 4/5CR
- -115 -8.25 867.3MHz, SF9BW125, 4/5CR
2026-05-05 19:33:44 17.125°C 75.8125% 3.32V v4 51.5916 / 4.99734 26378 ttn.v3 1.242km -107 -4 868.1MHz, SF9BW125, 4/5CR
2026-05-05 19:16:34 17.4375°C 75.75% 3.32V v4 51.5916 / 4.99734 26377 ttn.v3 - -117 -5.5 867.1MHz, SF9BW125, 4/5CR
- -120 -7 867.1MHz, SF9BW125, 4/5CR
1.242km -116 -11 867.1MHz, SF9BW125, 4/5CR
2026-05-05 18:59:24 17.3125°C 76.375% 3.32V v4 51.5916 / 4.99734 26376 ttn.v3 1.242km -109 -7.5 868.5MHz, SF9BW125, 4/5CR
- -115 -12.25 868.5MHz, SF9BW125, 4/5CR
2026-05-05 18:42:14 17.375°C 76.1875% 3.32V v4 51.5916 / 4.99734 26375 ttn.v3 1.242km -113 -1.75 867.9MHz, SF9BW125, 4/5CR
- -114 -8.75 867.9MHz, SF9BW125, 4/5CR
2026-05-05 18:25:04 17.25°C 77% 3.33V v4 51.5916 / 4.99734 26374 ttn.v3 1.242km -111 -6.75 868.3MHz, SF9BW125, 4/5CR
2026-05-05 17:50:45 17.1875°C 76.125% 3.33V v4 51.5916 / 4.99734 26372 ttn.v3 1.242km -115 -3.75 868.1MHz, SF9BW125, 4/5CR
2026-05-05 17:33:35 17.125°C 78.5625% 3.32V v4 51.5916 / 4.99734 26371 ttn.v3 - -115 -12.5 867.5MHz, SF9BW125, 4/5CR
2026-05-05 17:16:26 16.1875°C 82.875% 3.33V v4 51.5916 / 4.99734 26370 ttn.v3 1.242km -111 -2 868.5MHz, SF9BW125, 4/5CR
- -115 -12.25 868.5MHz, SF9BW125, 4/5CR
2026-05-05 16:59:17 14.75°C 88.25% 3.33V v4 51.5916 / 4.99734 26369 ttn.v3 1.242km -113 -6.5 867.3MHz, SF9BW125, 4/5CR
- -123 -10.75 867.3MHz, SF9BW125, 4/5CR
- -119 -11 867.3MHz, SF9BW125, 4/5CR
2026-05-05 16:42:08 14.375°C 88.3125% 3.33V v4 51.5916 / 4.99734 26368 ttn.v3 1.242km -109 -5 868.3MHz, SF9BW125, 4/5CR
2026-05-05 16:25:00 14.75°C 86.75% 3.33V v4 51.5916 / 4.99734 26367 ttn.v3 - -123 -9.75 867.1MHz, SF9BW125, 4/5CR
1.242km -114 -10 867.1MHz, SF9BW125, 4/5CR
- -123 -11.75 867.1MHz, SF9BW125, 4/5CR
- -115 -11.75 867.1MHz, SF9BW125, 4/5CR
- -115 -11.75 867.1MHz, SF9BW125, 4/5CR
2026-05-05 16:07:50 15°C 86.875% 3.33V v4 51.5916 / 4.99734 26366 ttn.v3 1.242km -102 -9.75 868.1MHz, SF9BW125, 4/5CR
2026-05-05 15:50:41 15°C 87.25% 3.33V v4 51.5916 / 4.99734 26365 ttn.v3 1.242km -113 2.5 867.9MHz, SF9BW125, 4/5CR
- -112 -1.25 867.9MHz, SF9BW125, 4/5CR
- -110 -10 867.9MHz, SF9BW125, 4/5CR
- -110 -10 867.9MHz, SF9BW125, 4/5CR
2026-05-05 15:33:32 15°C 87.5% 3.33V v4 51.5916 / 4.99734 26364 ttn.v3 1.242km -110 -8.5 868.5MHz, SF9BW125, 4/5CR
- -122 -11.5 868.5MHz, SF9BW125, 4/5CR
2026-05-05 15:16:23 15.125°C 87.125% 3.33V v4 51.5916 / 4.99734 26363 ttn.v3 1.242km -113 -4 867.7MHz, SF9BW125, 4/5CR
2026-05-05 14:59:14 14.75°C 88.875% 3.33V v4 51.5916 / 4.99734 26362 ttn.v3 1.242km -103 -6.5 868.3MHz, SF9BW125, 4/5CR
2026-05-05 14:42:05 14.625°C 89.8125% 3.33V v4 51.5916 / 4.99734 26361 ttn.v3 - -113 -13.75 867.5MHz, SF9BW125, 4/5CR
2026-05-05 14:24:56 14.6875°C 88.75% 3.33V v4 51.5916 / 4.99734 26360 ttn.v3 1.242km -111 -12.25 868.1MHz, SF9BW125, 4/5CR
2026-05-05 14:07:47 15.0625°C 87.8125% 3.33V v4 51.5916 / 4.99734 26359 ttn.v3 - -117 -5.5 867.3MHz, SF9BW125, 4/5CR
1.242km -114 -6.5 867.3MHz, SF9BW125, 4/5CR
- -121 -8 867.3MHz, SF9BW125, 4/5CR
- -110 -9.5 867.3MHz, SF9BW125, 4/5CR
- -110 -9.5 867.3MHz, SF9BW125, 4/5CR
2026-05-05 13:50:38 15.125°C 88.5625% 3.33V v4 51.5916 / 4.99734 26358 ttn.v3 1.242km -103 -4.25 868.5MHz, SF9BW125, 4/5CR
- -116 -10.75 868.5MHz, SF9BW125, 4/5CR
2026-05-05 13:33:29 14.75°C 90.25% 3.33V v4 51.5916 / 4.99734 26357 ttn.v3 - -115 -4.5 867.1MHz, SF9BW125, 4/5CR
- -121 -6.5 867.1MHz, SF9BW125, 4/5CR
1.242km -116 -9 867.1MHz, SF9BW125, 4/5CR
2026-05-05 13:16:21 14.3125°C 91.375% 3.33V v4 51.5916 / 4.99734 26356 ttn.v3 1.242km -109 -8.5 868.3MHz, SF9BW125, 4/5CR
2026-05-05 12:59:12 14°C 94.1875% 3.33V v4 51.5916 / 4.99734 26355 ttn.v3 1.242km -114 -1 867.9MHz, SF9BW125, 4/5CR
- -119 -8 867.9MHz, SF9BW125, 4/5CR
- -116 -8.25 867.9MHz, SF9BW125, 4/5CR
- -116 -8.25 867.9MHz, SF9BW125, 4/5CR
2026-05-05 12:42:04 13.5°C 95.75% 3.33V v4 51.5916 / 4.99734 26354 ttn.v3 1.242km -115 -1.25 868.1MHz, SF9BW125, 4/5CR
- -116 -10.25 868.1MHz, SF9BW125, 4/5CR
2026-05-05 12:24:55 13.0625°C 98.5% 3.33V v4 51.5916 / 4.99734 26353 ttn.v3 1.242km -114 -2.75 867.7MHz, SF9BW125, 4/5CR
- -112 -3.25 867.7MHz, SF9BW125, 4/5CR
- -108 -11.25 867.7MHz, SF9BW125, 4/5CR
- -108 -11.25 867.7MHz, SF9BW125, 4/5CR
2026-05-05 12:07:47 12.1875°C 101% 3.33V v4 51.5916 / 4.99734 26352 ttn.v3 1.242km -113 -3.25 868.5MHz, SF9BW125, 4/5CR
2026-05-05 11:33:31 12.125°C 102.5% 3.33V v4 51.5916 / 4.99734 26350 ttn.v3 1.242km -106 -6.75 868.3MHz, SF9BW125, 4/5CR
2026-05-05 11:16:23 12°C 103.688% 3.33V v4 51.5916 / 4.99734 26349 ttn.v3 - -114 -3 867.3MHz, SF9BW125, 4/5CR
- -124 -9 867.3MHz, SF9BW125, 4/5CR
- -102 -11.25 867.3MHz, SF9BW125, 4/5CR
2026-05-05 10:59:16 11.75°C 105.25% 3.33V v4 51.5916 / 4.99734 26348 ttn.v3 1.242km -107 -5.75 868.1MHz, SF9BW125, 4/5CR
2026-05-05 10:42:07 11.5625°C 106.438% 3.33V v4 51.5916 / 4.99734 26347 ttn.v3 - -114 -5.75 867.1MHz, SF9BW125, 4/5CR
- -120 -8.75 867.1MHz, SF9BW125, 4/5CR
2026-05-05 10:25:00 11.375°C 106.875% 3.33V v4 51.5916 / 4.99734 26346 ttn.v3 1.242km -104 -9.5 868.5MHz, SF9BW125, 4/5CR
- -113 -11 868.5MHz, SF9BW125, 4/5CR
2026-05-05 10:07:52 11.4375°C 106.625% 3.33V v4 51.5916 / 4.99734 26345 ttn.v3 1.242km -112 0.25 867.9MHz, SF9BW125, 4/5CR
2026-05-05 09:33:36 11.1875°C 107.75% 3.33V v4 51.5916 / 4.99734 26343 ttn.v3 1.242km -111 -7.75 867.7MHz, SF9BW125, 4/5CR
2026-05-05 08:42:13 11.125°C 108.688% 3.33V v4 51.5916 / 4.99734 26340 ttn.v3 1.242km -111 -6.25 868.5MHz, SF9BW125, 4/5CR
- -111 -13 868.5MHz, SF9BW125, 4/5CR
2026-05-05 08:25:05 11.1875°C 108.438% 3.33V v4 51.5916 / 4.99734 26339 ttn.v3 1.242km -113 -4.5 867.3MHz, SF9BW125, 4/5CR
- -114 -5.5 867.3MHz, SF9BW125, 4/5CR
2026-05-05 08:07:57 11.25°C 109% 3.33V v4 51.5916 / 4.99734 26338 ttn.v3 1.242km -104 -8.25 868.3MHz, SF9BW125, 4/5CR
2026-05-05 07:50:49 11.1875°C 109% 3.33V v4 51.5916 / 4.99734 26337 ttn.v3 1.242km -115 -3.75 867.1MHz, SF9BW125, 4/5CR
- -116 -8.5 867.1MHz, SF9BW125, 4/5CR
2026-05-05 07:33:41 11.3125°C 109.25% 3.33V v4 51.5916 / 4.99734 26336 ttn.v3 1.242km -105 -9.75 868.1MHz, SF9BW125, 4/5CR
2026-05-05 07:16:33 11.3125°C 109.062% 3.33V v4 51.5916 / 4.99734 26335 ttn.v3 1.242km -113 0.75 867.9MHz, SF9BW125, 4/5CR
- -113 -3.25 867.9MHz, SF9BW125, 4/5CR
- -115 -8.5 867.9MHz, SF9BW125, 4/5CR
- -115 -8.5 867.9MHz, SF9BW125, 4/5CR
5.685km -109 -10.25 867.9MHz, SF9BW125, 4/5CR
2026-05-05 06:59:26 11.375°C 109.25% 3.33V v4 51.5916 / 4.99734 26334 ttn.v3 1.242km -109 -2.75 868.5MHz, SF9BW125, 4/5CR
- -111 -12 868.5MHz, SF9BW125, 4/5CR
2026-05-05 06:42:18 11.3125°C 109.125% 3.33V v4 51.5916 / 4.99734 26333 ttn.v3 1.242km -113 2 867.7MHz, SF9BW125, 4/5CR
- -111 -0.75 867.7MHz, SF9BW125, 4/5CR
- -113 -7.75 867.7MHz, SF9BW125, 4/5CR
- -113 -7.75 867.7MHz, SF9BW125, 4/5CR
5.685km -113 -11.75 867.7MHz, SF9BW125, 4/5CR
2026-05-05 06:25:10 11.4375°C 109.188% 3.33V v4 51.5916 / 4.99734 26332 ttn.v3 1.242km -105 -4.5 868.3MHz, SF9BW125, 4/5CR
2026-05-05 06:08:02 11.5625°C 109.188% 3.33V v4 51.5916 / 4.99734 26331 ttn.v3 1.242km -111 -1.75 867.5MHz, SF9BW125, 4/5CR
- -112 -9.25 867.5MHz, SF9BW125, 4/5CR
2026-05-05 05:50:54 11.75°C 108.875% 3.33V v4 51.5916 / 4.99734 26330 ttn.v3 5.685km -110 -12.25 868.1MHz, SF9BW125, 4/5CR
2026-05-05 05:33:46 11.9375°C 108.938% 3.33V v4 51.5916 / 4.99734 26329 ttn.v3 1.242km -112 -4.5 867.3MHz, SF9BW125, 4/5CR
- -112 -6.5 867.3MHz, SF9BW125, 4/5CR
2026-05-05 05:16:38 12.0625°C 108.812% 3.33V v4 51.5916 / 4.99734 26328 ttn.v3 1.242km -111 -1.75 868.5MHz, SF9BW125, 4/5CR
2026-05-05 04:59:30 12.1875°C 108.438% 3.33V v4 51.5916 / 4.99734 26327 ttn.v3 1.242km -106 -3.75 867.1MHz, SF9BW125, 4/5CR
2026-05-05 04:25:14 12.5625°C 108.375% 3.33V v4 51.5916 / 4.99734 26325 ttn.v3 1.242km -113 1 867.9MHz, SF9BW125, 4/5CR
- -117 -3.25 867.9MHz, SF9BW125, 4/5CR
- -113 -11.25 867.9MHz, SF9BW125, 4/5CR
- -113 -11.25 867.9MHz, SF9BW125, 4/5CR
2026-05-05 04:08:05 12.75°C 108.125% 3.33V v4 51.5916 / 4.99734 26324 ttn.v3 1.242km -102 -6.75 868.1MHz, SF9BW125, 4/5CR
2026-05-05 03:50:57 12.875°C 107.438% 3.33V v4 51.5916 / 4.99734 26323 ttn.v3 1.242km -110 2.25 867.7MHz, SF9BW125, 4/5CR
- -112 -3.75 867.7MHz, SF9BW125, 4/5CR
- -111 -8.75 867.7MHz, SF9BW125, 4/5CR
- -111 -8.75 867.7MHz, SF9BW125, 4/5CR
2026-05-05 03:33:49 13°C 107.188% 3.33V v4 51.5916 / 4.99734 26322 ttn.v3 - -112 -11.25 868.5MHz, SF9BW125, 4/5CR
2026-05-05 03:16:40 13.0625°C 107% 3.33V v4 51.5916 / 4.99734 26321 ttn.v3 1.242km -113 -0.75 867.5MHz, SF9BW125, 4/5CR
- -115 -14.25 867.5MHz, SF9BW125, 4/5CR
2026-05-05 02:42:24 13.4375°C 107.562% 3.33V v4 51.5916 / 4.99734 26319 ttn.v3 1.242km -113 -4.5 867.3MHz, SF9BW125, 4/5CR
- -114 -6.5 867.3MHz, SF9BW125, 4/5CR
5.685km -113 -12.75 867.3MHz, SF9BW125, 4/5CR
- -115 -13.25 867.3MHz, SF9BW125, 4/5CR
- -115 -13.25 867.3MHz, SF9BW125, 4/5CR
2026-05-05 02:25:15 13.5625°C 107.375% 3.33V v4 51.5916 / 4.99734 26318 ttn.v3 1.242km -97 -8.25 868.1MHz, SF9BW125, 4/5CR
2026-05-05 02:08:07 13.75°C 106.812% 3.33V v4 51.5916 / 4.99734 26317 ttn.v3 1.242km -116 -1 867.1MHz, SF9BW125, 4/5CR
- -115 -4.75 867.1MHz, SF9BW125, 4/5CR
- -123 -10.5 867.1MHz, SF9BW125, 4/5CR
2026-05-05 01:33:49 14.125°C 106.688% 3.33V v4 51.5916 / 4.99734 26315 ttn.v3 1.242km -111 4 867.9MHz, SF9BW125, 4/5CR
- -116 -5 867.9MHz, SF9BW125, 4/5CR
2026-05-05 00:59:32 14.5°C 106.688% 3.33V v4 51.5916 / 4.99734 26313 ttn.v3 1.242km -111 3.25 867.7MHz, SF9BW125, 4/5CR
- -107 -8.25 867.7MHz, SF9BW125, 4/5CR
- -107 -8.25 867.7MHz, SF9BW125, 4/5CR
2026-05-05 00:42:23 14.625°C 106.75% 3.33V v4 51.5916 / 4.99734 26312 ttn.v3 1.242km -108 -0.75 868.1MHz, SF9BW125, 4/5CR
2026-05-05 00:25:14 14.75°C 106.562% 3.33V v4 51.5916 / 4.99734 26311 ttn.v3 1.242km -110 -1.5 867.5MHz, SF9BW125, 4/5CR
- -114 -12 867.5MHz, SF9BW125, 4/5CR
2026-05-04 23:50:56 15°C 105.375% 3.33V v4 51.5916 / 4.99734 26309 ttn.v3 1.242km -107 -3 867.3MHz, SF9BW125, 4/5CR
- -114 -4 867.3MHz, SF9BW125, 4/5CR
- -122 -9 867.3MHz, SF9BW125, 4/5CR
2026-05-04 23:16:38 15.3125°C 104.438% 3.33V v4 51.5916 / 4.99734 26307 ttn.v3 - -118 -6 867.1MHz, SF9BW125, 4/5CR
- -115 -7.5 867.1MHz, SF9BW125, 4/5CR
2026-05-04 22:42:20 15.625°C 102.25% 3.33V v4 51.5916 / 4.99734 26305 ttn.v3 1.242km -113 3 867.9MHz, SF9BW125, 4/5CR
- -116 -6.75 867.9MHz, SF9BW125, 4/5CR
2026-05-04 22:26:05 15.875°C 100.875% 3.32V v4 51.5916 / 4.99734 26304 ttn.v3 1.242km -109 -6.5 868.5MHz, SF12BW125, 4/5CR
- -113 -18 868.5MHz, SF12BW125, 4/5CR
2026-05-04 22:08:08 16.1875°C 100.625% 3.33V v4 51.5917 / 4.9975 26303 ttn.v3 1.23km -109 0.75 867.7MHz, SF9BW125, 4/5CR
2026-05-04 21:50:59 16.4375°C 100.188% 3.33V v4 51.5917 / 4.9975 26302 ttn.v3 1.23km -103 -4.75 868.3MHz, SF9BW125, 4/5CR
2026-05-04 21:33:49 16.6875°C 99.0625% 3.33V v4 51.5917 / 4.9975 26301 ttn.v3 1.23km -110 -2 867.5MHz, SF9BW125, 4/5CR
2026-05-04 20:59:30 17.5625°C 97.5% 3.33V v4 51.5917 / 4.9975 26299 ttn.v3 - -112 -3.5 867.3MHz, SF9BW125, 4/5CR
1.23km -116 -5.5 867.3MHz, SF9BW125, 4/5CR
2026-05-04 20:42:20 18°C 95.125% 3.33V v4 51.5917 / 4.9975 26298 ttn.v3 1.23km -111 -9.5 868.5MHz, SF9BW125, 4/5CR
2026-05-04 20:25:10 18.5°C 93.625% 3.33V v4 51.5917 / 4.9975 26297 ttn.v3 - -117 -4.75 867.1MHz, SF9BW125, 4/5CR
2026-05-04 20:08:00 18.875°C 90.875% 3.32V v4 51.5917 / 4.9975 26296 ttn.v3 1.23km -105 -3.25 868.3MHz, SF9BW125, 4/5CR

Message count: 200
Node count: 1

Messages per node

Number of messages in list aboveNodes
200

Statistics per gateway

GatewayNumber of messagesNumber of nodesNodes
1831 (1.23km)
1011
531
361
201 (5.685km)

Filter by dataset